sensor_id;sensor_type;location;lat;lon;timestamp;temperature;humidity
10812;DHT22;5458;51.496;7.334;2023-02-15T00:00:05;6.70;99.90
10812;DHT22;5458;51.496;7.334;2023-02-15T00:02:31;6.70;99.90
10812;DHT22;5458;51.496;7.334;2023-02-15T00:04:56;6.70;99.90
10812;DHT22;5458;51.496;7.334;2023-02-15T00:07:22;6.70;99.90
10812;DHT22;5458;51.496;7.334;2023-02-15T00:09:48;6.70;99.90
10812;DHT22;5458;51.496;7.334;2023-02-15T00:12:14;6.70;99.90
10812;DHT22;5458;51.496;7.334;2023-02-15T00:14:40;6.70;99.90
10812;DHT22;5458;51.496;7.334;2023-02-15T00:17:07;6.60;99.90
10812;DHT22;5458;51.496;7.334;2023-02-15T00:19:33;6.60;99.90
10812;DHT22;5458;51.496;7.334;2023-02-15T00:21:59;6.60;99.90
10812;DHT22;5458;51.496;7.334;2023-02-15T00:24:25;6.60;99.90
10812;DHT22;5458;51.496;7.334;2023-02-15T00:26:50;6.60;99.90
10812;DHT22;5458;51.496;7.334;2023-02-15T00:29:18;6.50;99.90
10812;DHT22;5458;51.496;7.334;2023-02-15T00:31:44;6.50;99.90
10812;DHT22;5458;51.496;7.334;2023-02-15T00:34:21;6.50;99.90
10812;DHT22;5458;51.496;7.334;2023-02-15T00:36:47;6.50;99.90
10812;DHT22;5458;51.496;7.334;2023-02-15T00:39:14;6.40;99.90
10812;DHT22;5458;51.496;7.334;2023-02-15T00:41:40;6.40;99.90
10812;DHT22;5458;51.496;7.334;2023-02-15T00:44:06;6.30;99.90
10812;DHT22;5458;51.496;7.334;2023-02-15T00:46:32;6.30;99.90
10812;DHT22;5458;51.496;7.334;2023-02-15T00:48:58;6.30;99.90
10812;DHT22;5458;51.496;7.334;2023-02-15T00:51:24;6.20;99.90
10812;DHT22;5458;51.496;7.334;2023-02-15T00:53:50;6.10;99.90
10812;DHT22;5458;51.496;7.334;2023-02-15T00:56:17;6.10;99.90
10812;DHT22;5458;51.496;7.334;2023-02-15T00:58:43;6.10;99.90
10812;DHT22;5458;51.496;7.334;2023-02-15T01:01:11;6.10;99.90
10812;DHT22;5458;51.496;7.334;2023-02-15T01:03:37;6.10;99.90
10812;DHT22;5458;51.496;7.334;2023-02-15T01:06:04;6.10;99.90
10812;DHT22;5458;51.496;7.334;2023-02-15T01:08:30;6.10;99.90
10812;DHT22;5458;51.496;7.334;2023-02-15T01:10:56;6.10;99.90
10812;DHT22;5458;51.496;7.334;2023-02-15T01:13:22;6.10;99.90
10812;DHT22;5458;51.496;7.334;2023-02-15T01:15:55;6.10;99.90
10812;DHT22;5458;51.496;7.334;2023-02-15T01:18:21;6.20;99.90
10812;DHT22;5458;51.496;7.334;2023-02-15T01:20:48;6.20;99.90
10812;DHT22;5458;51.496;7.334;2023-02-15T01:23:14;6.20;99.90
10812;DHT22;5458;51.496;7.334;2023-02-15T01:25:40;6.10;99.90
10812;DHT22;5458;51.496;7.334;2023-02-15T01:28:05;6.10;99.90
10812;DHT22;5458;51.496;7.334;2023-02-15T01:30:32;6.10;99.90
10812;DHT22;5458;51.496;7.334;2023-02-15T01:32:57;6.10;99.90
10812;DHT22;5458;51.496;7.334;2023-02-15T01:35:23;6.00;99.90
10812;DHT22;5458;51.496;7.334;2023-02-15T01:37:49;6.10;99.90
10812;DHT22;5458;51.496;7.334;2023-02-15T01:40:17;6.00;99.90
10812;DHT22;5458;51.496;7.334;2023-02-15T01:42:43;6.00;99.90
10812;DHT22;5458;51.496;7.334;2023-02-15T01:45:20;5.90;99.90
10812;DHT22;5458;51.496;7.334;2023-02-15T01:47:58;5.90;99.90
10812;DHT22;5458;51.496;7.334;2023-02-15T01:50:34;5.80;99.90
10812;DHT22;5458;51.496;7.334;2023-02-15T01:53:21;5.70;99.90
10812;DHT22;5458;51.496;7.334;2023-02-15T01:55:57;5.60;99.90
10812;DHT22;5458;51.496;7.334;2023-02-15T01:58:26;5.60;99.90
10812;DHT22;5458;51.496;7.334;2023-02-15T02:00:53;5.50;99.90
10812;DHT22;5458;51.496;7.334;2023-02-15T02:03:42;5.40;99.90
10812;DHT22;5458;51.496;7.334;2023-02-15T02:06:09;5.40;99.90
10812;DHT22;5458;51.496;7.334;2023-02-15T02:08:35;5.40;99.90
10812;DHT22;5458;51.496;7.334;2023-02-15T02:11:01;5.30;99.90
10812;DHT22;5458;51.496;7.334;2023-02-15T02:13:27;5.30;99.90
10812;DHT22;5458;51.496;7.334;2023-02-15T02:16:04;5.30;99.90
10812;DHT22;5458;51.496;7.334;2023-02-15T02:27:21;5.10;99.90
10812;DHT22;5458;51.496;7.334;2023-02-15T02:35:50;5.10;99.90
10812;DHT22;5458;51.496;7.334;2023-02-15T02:49:09;5.00;99.90
10812;DHT22;5458;51.496;7.334;2023-02-15T02:51:35;5.00;99.90
10812;DHT22;5458;51.496;7.334;2023-02-15T02:54:05;5.00;99.90
10812;DHT22;5458;51.496;7.334;2023-02-15T02:56:37;5.00;99.90
10812;DHT22;5458;51.496;7.334;2023-02-15T02:59:19;4.90;99.90
10812;DHT22;5458;51.496;7.334;2023-02-15T03:01:53;5.00;99.90
10812;DHT22;5458;51.496;7.334;2023-02-15T03:04:25;4.90;99.90
10812;DHT22;5458;51.496;7.334;2023-02-15T03:06:58;4.90;99.90
10812;DHT22;5458;51.496;7.334;2023-02-15T03:09:29;4.90;99.90
10812;DHT22;5458;51.496;7.334;2023-02-15T03:12:00;4.90;99.90
10812;DHT22;5458;51.496;7.334;2023-02-15T03:14:28;4.90;99.90
10812;DHT22;5458;51.496;7.334;2023-02-15T03:16:55;4.80;99.90
10812;DHT22;5458;51.496;7.334;2023-02-15T03:19:27;4.80;99.90
10812;DHT22;5458;51.496;7.334;2023-02-15T03:22:04;4.90;99.90
10812;DHT22;5458;51.496;7.334;2023-02-15T03:24:39;4.90;99.90
10812;DHT22;5458;51.496;7.334;2023-02-15T03:27:11;4.80;99.90
10812;DHT22;5458;51.496;7.334;2023-02-15T03:29:39;4.80;99.90
10812;DHT22;5458;51.496;7.334;2023-02-15T03:32:07;4.80;99.90
10812;DHT22;5458;51.496;7.334;2023-02-15T03:34:35;4.80;99.90
10812;DHT22;5458;51.496;7.334;2023-02-15T03:42:32;4.70;99.90
10812;DHT22;5458;51.496;7.334;2023-02-15T03:45:05;4.70;99.90
10812;DHT22;5458;51.496;7.334;2023-02-15T03:47:37;4.70;99.90
10812;DHT22;5458;51.496;7.334;2023-02-15T03:53:00;4.70;99.90
10812;DHT22;5458;51.496;7.334;2023-02-15T03:55:27;4.70;99.90
10812;DHT22;5458;51.496;7.334;2023-02-15T03:57:53;4.80;99.90
10812;DHT22;5458;51.496;7.334;2023-02-15T04:00:43;4.70;99.90
10812;DHT22;5458;51.496;7.334;2023-02-15T04:04:07;4.80;99.90
10812;DHT22;5458;51.496;7.334;2023-02-15T04:06:35;4.80;99.90
10812;DHT22;5458;51.496;7.334;2023-02-15T04:09:00;4.70;99.90
10812;DHT22;5458;51.496;7.334;2023-02-15T04:11:44;4.70;99.90
10812;DHT22;5458;51.496;7.334;2023-02-15T04:14:10;4.70;99.90
10812;DHT22;5458;51.496;7.334;2023-02-15T04:16:55;4.60;99.90
10812;DHT22;5458;51.496;7.334;2023-02-15T04:19:20;4.50;99.90
10812;DHT22;5458;51.496;7.334;2023-02-15T04:22:04;4.50;99.90
10812;DHT22;5458;51.496;7.334;2023-02-15T04:24:48;4.50;99.90
10812;DHT22;5458;51.496;7.334;2023-02-15T04:27:33;4.40;99.90
10812;DHT22;5458;51.496;7.334;2023-02-15T04:29:59;4.40;99.90
10812;DHT22;5458;51.496;7.334;2023-02-15T04:32:24;4.30;99.90
10812;DHT22;5458;51.496;7.334;2023-02-15T04:34:50;4.30;99.90
10812;DHT22;5458;51.496;7.334;2023-02-15T04:37:15;4.30;99.90
10812;DHT22;5458;51.496;7.334;2023-02-15T04:39:41;4.30;99.90
10812;DHT22;5458;51.496;7.334;2023-02-15T04:42:07;4.30;99.90
10812;DHT22;5458;51.496;7.334;2023-02-15T04:44:32;4.30;99.90
10812;DHT22;5458;51.496;7.334;2023-02-15T04:46:58;4.30;99.90
10812;DHT22;5458;51.496;7.334;2023-02-15T04:49:24;4.30;99.90
10812;DHT22;5458;51.496;7.334;2023-02-15T04:51:49;4.30;99.90
10812;DHT22;5458;51.496;7.334;2023-02-15T04:54:15;4.20;99.90
10812;DHT22;5458;51.496;7.334;2023-02-15T04:56:41;4.20;99.90
10812;DHT22;5458;51.496;7.334;2023-02-15T04:59:10;4.20;99.90
10812;DHT22;5458;51.496;7.334;2023-02-15T05:01:36;4.20;99.90
10812;DHT22;5458;51.496;7.334;2023-02-15T05:04:02;4.20;99.90
10812;DHT22;5458;51.496;7.334;2023-02-15T05:06:28;4.20;99.90
10812;DHT22;5458;51.496;7.334;2023-02-15T05:08:54;4.20;99.90
10812;DHT22;5458;51.496;7.334;2023-02-15T05:11:20;4.20;99.90
10812;DHT22;5458;51.496;7.334;2023-02-15T05:13:45;4.20;99.90
10812;DHT22;5458;51.496;7.334;2023-02-15T05:16:11;4.10;99.90
10812;DHT22;5458;51.496;7.334;2023-02-15T05:18:37;4.10;99.90
10812;DHT22;5458;51.496;7.334;2023-02-15T05:21:02;4.10;99.90
10812;DHT22;5458;51.496;7.334;2023-02-15T05:23:28;4.10;99.90
10812;DHT22;5458;51.496;7.334;2023-02-15T05:25:54;4.10;99.90
10812;DHT22;5458;51.496;7.334;2023-02-15T05:28:38;4.00;99.90
10812;DHT22;5458;51.496;7.334;2023-02-15T05:31:11;4.00;99.90
10812;DHT22;5458;51.496;7.334;2023-02-15T05:33:38;4.00;99.90
10812;DHT22;5458;51.496;7.334;2023-02-15T05:36:04;4.00;99.90
10812;DHT22;5458;51.496;7.334;2023-02-15T05:38:30;4.00;99.90
10812;DHT22;5458;51.496;7.334;2023-02-15T05:40:56;4.00;99.90
10812;DHT22;5458;51.496;7.334;2023-02-15T05:43:22;3.90;99.90
10812;DHT22;5458;51.496;7.334;2023-02-15T05:45:50;3.90;99.90
10812;DHT22;5458;51.496;7.334;2023-02-15T05:48:16;3.90;99.90
10812;DHT22;5458;51.496;7.334;2023-02-15T05:50:42;3.90;99.90
10812;DHT22;5458;51.496;7.334;2023-02-15T05:53:08;3.80;99.90
10812;DHT22;5458;51.496;7.334;2023-02-15T05:55:34;3.80;99.90
10812;DHT22;5458;51.496;7.334;2023-02-15T05:58:02;3.80;99.90
10812;DHT22;5458;51.496;7.334;2023-02-15T06:00:27;3.80;99.90
10812;DHT22;5458;51.496;7.334;2023-02-15T06:02:53;3.90;99.90
10812;DHT22;5458;51.496;7.334;2023-02-15T06:05:19;3.80;99.90
10812;DHT22;5458;51.496;7.334;2023-02-15T06:07:45;3.80;99.90
10812;DHT22;5458;51.496;7.334;2023-02-15T06:10:11;3.80;99.90
10812;DHT22;5458;51.496;7.334;2023-02-15T06:12:37;3.80;99.90
10812;DHT22;5458;51.496;7.334;2023-02-15T06:15:03;3.80;99.90
10812;DHT22;5458;51.496;7.334;2023-02-15T06:17:29;3.80;99.90
10812;DHT22;5458;51.496;7.334;2023-02-15T06:19:55;3.80;99.90
10812;DHT22;5458;51.496;7.334;2023-02-15T06:22:20;3.80;99.90
10812;DHT22;5458;51.496;7.334;2023-02-15T06:24:47;3.80;99.90
10812;DHT22;5458;51.496;7.334;2023-02-15T06:27:12;3.80;99.90
10812;DHT22;5458;51.496;7.334;2023-02-15T06:29:38;3.80;99.90
10812;DHT22;5458;51.496;7.334;2023-02-15T06:32:04;3.90;99.90
10812;DHT22;5458;51.496;7.334;2023-02-15T06:34:30;3.80;99.90
10812;DHT22;5458;51.496;7.334;2023-02-15T06:36:56;3.90;99.90
10812;DHT22;5458;51.496;7.334;2023-02-15T06:39:21;3.90;99.90
10812;DHT22;5458;51.496;7.334;2023-02-15T06:41:47;3.90;99.90
10812;DHT22;5458;51.496;7.334;2023-02-15T06:44:13;3.90;99.90
10812;DHT22;5458;51.496;7.334;2023-02-15T06:46:39;3.90;99.90
10812;DHT22;5458;51.496;7.334;2023-02-15T06:49:04;4.00;99.90
10812;DHT22;5458;51.496;7.334;2023-02-15T06:51:30;4.00;99.90
10812;DHT22;5458;51.496;7.334;2023-02-15T06:53:56;4.10;99.90
10812;DHT22;5458;51.496;7.334;2023-02-15T06:56:22;4.10;99.90
10812;DHT22;5458;51.496;7.334;2023-02-15T06:58:47;4.20;99.90
10812;DHT22;5458;51.496;7.334;2023-02-15T07:01:15;4.30;99.90
10812;DHT22;5458;51.496;7.334;2023-02-15T07:03:41;4.40;99.90
10812;DHT22;5458;51.496;7.334;2023-02-15T07:06:07;4.40;99.90
10812;DHT22;5458;51.496;7.334;2023-02-15T07:08:34;4.50;99.90
10812;DHT22;5458;51.496;7.334;2023-02-15T07:11:00;4.50;99.90
10812;DHT22;5458;51.496;7.334;2023-02-15T07:13:46;4.60;99.90
10812;DHT22;5458;51.496;7.334;2023-02-15T07:16:12;4.60;99.90
10812;DHT22;5458;51.496;7.334;2023-02-15T07:18:38;4.70;99.90
10812;DHT22;5458;51.496;7.334;2023-02-15T07:21:05;4.80;99.90
10812;DHT22;5458;51.496;7.334;2023-02-15T07:23:36;4.80;99.90
10812;DHT22;5458;51.496;7.334;2023-02-15T07:26:01;5.00;99.90
10812;DHT22;5458;51.496;7.334;2023-02-15T07:28:28;5.10;99.90
10812;DHT22;5458;51.496;7.334;2023-02-15T07:30:53;5.20;99.90
10812;DHT22;5458;51.496;7.334;2023-02-15T07:33:19;5.20;99.90
10812;DHT22;5458;51.496;7.334;2023-02-15T07:35:59;5.40;99.90
10812;DHT22;5458;51.496;7.334;2023-02-15T07:38:26;5.40;99.90
10812;DHT22;5458;51.496;7.334;2023-02-15T07:41:01;5.50;99.90
10812;DHT22;5458;51.496;7.334;2023-02-15T07:43:28;5.60;99.90
10812;DHT22;5458;51.496;7.334;2023-02-15T07:45:54;5.60;99.90
10812;DHT22;5458;51.496;7.334;2023-02-15T07:48:24;5.70;99.90
10812;DHT22;5458;51.496;7.334;2023-02-15T07:50:49;5.80;99.90
10812;DHT22;5458;51.496;7.334;2023-02-15T07:53:15;5.90;99.90
10812;DHT22;5458;51.496;7.334;2023-02-15T07:55:40;6.00;99.90
10812;DHT22;5458;51.496;7.334;2023-02-15T07:58:06;6.10;99.90
10812;DHT22;5458;51.496;7.334;2023-02-15T08:00:32;6.20;99.90
10812;DHT22;5458;51.496;7.334;2023-02-15T08:03:17;6.30;99.90
10812;DHT22;5458;51.496;7.334;2023-02-15T08:05:44;6.40;99.90
10812;DHT22;5458;51.496;7.334;2023-02-15T08:08:11;6.50;99.90
10812;DHT22;5458;51.496;7.334;2023-02-15T08:14:02;8.00;99.90
10812;DHT22;5458;51.496;7.334;2023-02-15T08:19:13;12.90;94.30
10812;DHT22;5458;51.496;7.334;2023-02-15T08:21:41;15.80;87.10
10812;DHT22;5458;51.496;7.334;2023-02-15T08:24:09;18.00;76.30
10812;DHT22;5458;51.496;7.334;2023-02-15T08:26:35;19.70;67.00
10812;DHT22;5458;51.496;7.334;2023-02-15T08:29:02;21.20;59.80
10812;DHT22;5458;51.496;7.334;2023-02-15T08:31:28;22.40;56.20
10812;DHT22;5458;51.496;7.334;2023-02-15T08:33:55;23.40;52.70
10812;DHT22;5458;51.496;7.334;2023-02-15T08:36:24;24.30;50.00
10812;DHT22;5458;51.496;7.334;2023-02-15T08:38:50;25.10;48.00
10812;DHT22;5458;51.496;7.334;2023-02-15T08:41:22;25.40;46.30
10812;DHT22;5458;51.496;7.334;2023-02-15T08:43:53;25.20;45.10
10812;DHT22;5458;51.496;7.334;2023-02-15T08:46:19;24.90;45.00
10812;DHT22;5458;51.496;7.334;2023-02-15T08:48:46;24.60;45.00
10812;DHT22;5458;51.496;7.334;2023-02-15T08:51:24;24.30;45.10
10812;DHT22;5458;51.496;7.334;2023-02-15T08:53:52;24.50;44.90
10812;DHT22;5458;51.496;7.334;2023-02-15T08:56:20;25.20;44.10
10812;DHT22;5458;51.496;7.334;2023-02-15T08:58:46;26.10;43.30
10812;DHT22;5458;51.496;7.334;2023-02-15T09:01:14;26.80;42.00
10812;DHT22;5458;51.496;7.334;2023-02-15T09:03:44;27.40;40.70
10812;DHT22;5458;51.496;7.334;2023-02-15T09:06:10;27.80;40.00
10812;DHT22;5458;51.496;7.334;2023-02-15T09:08:36;28.10;39.40
10812;DHT22;5458;51.496;7.334;2023-02-15T09:13:39;28.90;37.70
10812;DHT22;5458;51.496;7.334;2023-02-15T09:16:07;29.00;37.60
10812;DHT22;5458;51.496;7.334;2023-02-15T09:18:36;29.20;36.70
10812;DHT22;5458;51.496;7.334;2023-02-15T09:21:08;29.40;35.40
10812;DHT22;5458;51.496;7.334;2023-02-15T09:23:34;29.60;35.80
10812;DHT22;5458;51.496;7.334;2023-02-15T09:26:11;29.60;35.10
10812;DHT22;5458;51.496;7.334;2023-02-15T09:28:37;29.60;34.60
10812;DHT22;5458;51.496;7.334;2023-02-15T09:31:07;29.60;35.00
10812;DHT22;5458;51.496;7.334;2023-02-15T09:33:34;29.60;34.30
10812;DHT22;5458;51.496;7.334;2023-02-15T09:36:00;29.80;34.50
10812;DHT22;5458;51.496;7.334;2023-02-15T09:38:26;30.10;33.90
10812;DHT22;5458;51.496;7.334;2023-02-15T10:00:45;29.90;33.30
10812;DHT22;5458;51.496;7.334;2023-02-15T10:03:20;28.80;34.40
10812;DHT22;5458;51.496;7.334;2023-02-15T10:08:40;25.40;37.80
10812;DHT22;5458;51.496;7.334;2023-02-15T10:11:17;23.70;40.00
10812;DHT22;5458;51.496;7.334;2023-02-15T10:15:21;22.10;42.30
10812;DHT22;5458;51.496;7.334;2023-02-15T10:20:39;19.50;45.20
10812;DHT22;5458;51.496;7.334;2023-02-15T10:28:24;17.80;49.70
10812;DHT22;5458;51.496;7.334;2023-02-15T10:30:57;17.60;50.80
10812;DHT22;5458;51.496;7.334;2023-02-15T10:41:47;17.00;52.90
10812;DHT22;5458;51.496;7.334;2023-02-15T10:55:55;16.70;53.90
10812;DHT22;5458;51.496;7.334;2023-02-15T10:58:53;16.50;52.70
10812;DHT22;5458;51.496;7.334;2023-02-15T11:06:26;16.70;54.70
10812;DHT22;5458;51.496;7.334;2023-02-15T11:09:02;16.70;54.40
10812;DHT22;5458;51.496;7.334;2023-02-15T11:11:33;16.70;54.10
10812;DHT22;5458;51.496;7.334;2023-02-15T11:14:10;16.70;54.10
10812;DHT22;5458;51.496;7.334;2023-02-15T11:16:43;16.50;54.00
10812;DHT22;5458;51.496;7.334;2023-02-15T11:19:26;16.30;53.90
10812;DHT22;5458;51.496;7.334;2023-02-15T11:21:57;16.30;54.00
10812;DHT22;5458;51.496;7.334;2023-02-15T11:24:27;16.20;54.70
10812;DHT22;5458;51.496;7.334;2023-02-15T11:27:21;16.30;55.10
10812;DHT22;5458;51.496;7.334;2023-02-15T11:30:09;16.40;55.40
10812;DHT22;5458;51.496;7.334;2023-02-15T11:32:39;16.30;54.40
10812;DHT22;5458;51.496;7.334;2023-02-15T11:37:57;16.20;54.60
10812;DHT22;5458;51.496;7.334;2023-02-15T11:40:32;16.20;54.00
10812;DHT22;5458;51.496;7.334;2023-02-15T11:43:06;16.10;54.90
10812;DHT22;5458;51.496;7.334;2023-02-15T11:45:36;16.20;56.00
10812;DHT22;5458;51.496;7.334;2023-02-15T11:48:09;16.10;55.70
10812;DHT22;5458;51.496;7.334;2023-02-15T11:50:36;16.20;55.30
10812;DHT22;5458;51.496;7.334;2023-02-15T11:55:36;16.20;55.00
10812;DHT22;5458;51.496;7.334;2023-02-15T12:01:08;16.30;54.70
10812;DHT22;5458;51.496;7.334;2023-02-15T12:03:45;16.20;53.80
10812;DHT22;5458;51.496;7.334;2023-02-15T12:06:33;16.10;52.70
10812;DHT22;5458;51.496;7.334;2023-02-15T12:11:49;16.10;54.70
10812;DHT22;5458;51.496;7.334;2023-02-15T12:14:15;16.00;54.80
10812;DHT22;5458;51.496;7.334;2023-02-15T12:21:59;15.90;55.20
10812;DHT22;5458;51.496;7.334;2023-02-15T12:24:34;15.90;54.30
10812;DHT22;5458;51.496;7.334;2023-02-15T12:29:42;15.80;54.30
10812;DHT22;5458;51.496;7.334;2023-02-15T12:32:23;15.90;55.50
10812;DHT22;5458;51.496;7.334;2023-02-15T12:34:50;16.00;55.80
10812;DHT22;5458;51.496;7.334;2023-02-15T12:37:21;16.00;55.30
10812;DHT22;5458;51.496;7.334;2023-02-15T12:39:59;16.00;54.50
10812;DHT22;5458;51.496;7.334;2023-02-15T12:42:26;16.10;55.50
10812;DHT22;5458;51.496;7.334;2023-02-15T12:47:20;16.10;55.90
10812;DHT22;5458;51.496;7.334;2023-02-15T12:52:34;16.00;55.50
10812;DHT22;5458;51.496;7.334;2023-02-15T12:55:23;16.00;55.70
10812;DHT22;5458;51.496;7.334;2023-02-15T12:57:49;15.90;54.80
10812;DHT22;5458;51.496;7.334;2023-02-15T13:00:29;16.00;55.90
10812;DHT22;5458;51.496;7.334;2023-02-15T13:02:58;16.00;56.00
10812;DHT22;5458;51.496;7.334;2023-02-15T13:05:35;16.10;55.40
10812;DHT22;5458;51.496;7.334;2023-02-15T13:08:19;16.10;55.00
10812;DHT22;5458;51.496;7.334;2023-02-15T13:11:07;16.10;55.10
10812;DHT22;5458;51.496;7.334;2023-02-15T13:14:00;16.10;54.30
10812;DHT22;5458;51.496;7.334;2023-02-15T13:16:33;16.20;54.50
10812;DHT22;5458;51.496;7.334;2023-02-15T13:21:56;16.20;53.90
10812;DHT22;5458;51.496;7.334;2023-02-15T13:24:41;16.30;54.50
10812;DHT22;5458;51.496;7.334;2023-02-15T13:27:21;16.30;54.00
10812;DHT22;5458;51.496;7.334;2023-02-15T13:29:51;16.20;53.80
10812;DHT22;5458;51.496;7.334;2023-02-15T13:32:35;16.30;54.60
10812;DHT22;5458;51.496;7.334;2023-02-15T13:35:03;16.20;53.80
10812;DHT22;5458;51.496;7.334;2023-02-15T13:42:54;16.20;53.80
10812;DHT22;5458;51.496;7.334;2023-02-15T13:59:07;16.10;53.70
10812;DHT22;5458;51.496;7.334;2023-02-15T14:07:12;15.90;53.30
10812;DHT22;5458;51.496;7.334;2023-02-15T14:10:21;15.80;52.60
10812;DHT22;5458;51.496;7.334;2023-02-15T14:16:09;15.80;53.10
10812;DHT22;5458;51.496;7.334;2023-02-15T14:24:30;15.80;53.50
10812;DHT22;5458;51.496;7.334;2023-02-15T14:29:52;15.80;53.30
10812;DHT22;5458;51.496;7.334;2023-02-15T14:32:42;15.80;53.50
10812;DHT22;5458;51.496;7.334;2023-02-15T14:35:22;15.90;53.20
10812;DHT22;5458;51.496;7.334;2023-02-15T14:38:13;15.80;52.80
10812;DHT22;5458;51.496;7.334;2023-02-15T14:40:51;15.80;53.20
10812;DHT22;5458;51.496;7.334;2023-02-15T14:48:55;15.70;53.40
10812;DHT22;5458;51.496;7.334;2023-02-15T14:56:46;15.60;53.90
10812;DHT22;5458;51.496;7.334;2023-02-15T14:59:20;15.50;53.30
10812;DHT22;5458;51.496;7.334;2023-02-15T15:01:59;15.50;53.90
10812;DHT22;5458;51.496;7.334;2023-02-15T15:07:43;15.30;53.60
10812;DHT22;5458;51.496;7.334;2023-02-15T15:15:54;15.10;53.00
10812;DHT22;5458;51.496;7.334;2023-02-15T15:18:46;15.10;53.00
10812;DHT22;5458;51.496;7.334;2023-02-15T15:27:47;14.90;53.40
10812;DHT22;5458;51.496;7.334;2023-02-15T15:41:03;14.70;54.50
10812;DHT22;5458;51.496;7.334;2023-02-15T15:44:17;14.70;54.50
10812;DHT22;5458;51.496;7.334;2023-02-15T15:49:32;14.70;55.00
10812;DHT22;5458;51.496;7.334;2023-02-15T15:52:07;14.70;55.50
10812;DHT22;5458;51.496;7.334;2023-02-15T15:54:34;14.60;56.00
10812;DHT22;5458;51.496;7.334;2023-02-15T15:57:04;14.60;56.70
10812;DHT22;5458;51.496;7.334;2023-02-15T15:59:32;14.50;57.30
10812;DHT22;5458;51.496;7.334;2023-02-15T16:02:10;14.50;57.80
10812;DHT22;5458;51.496;7.334;2023-02-15T16:04:36;14.40;58.00
10812;DHT22;5458;51.496;7.334;2023-02-15T16:10:07;14.30;59.40
10812;DHT22;5458;51.496;7.334;2023-02-15T16:12:34;14.20;59.90
10812;DHT22;5458;51.496;7.334;2023-02-15T16:17:43;14.00;62.00
10812;DHT22;5458;51.496;7.334;2023-02-15T16:20:26;13.90;62.70
10812;DHT22;5458;51.496;7.334;2023-02-15T16:28:32;13.70;65.00
10812;DHT22;5458;51.496;7.334;2023-02-15T16:31:15;13.50;65.40
10812;DHT22;5458;51.496;7.334;2023-02-15T16:33:42;13.50;65.70
10812;DHT22;5458;51.496;7.334;2023-02-15T16:36:11;13.40;66.00
10812;DHT22;5458;51.496;7.334;2023-02-15T16:41:17;13.30;66.10
10812;DHT22;5458;51.496;7.334;2023-02-15T16:43:47;13.30;66.00
10812;DHT22;5458;51.496;7.334;2023-02-15T16:47:02;13.20;65.80
10812;DHT22;5458;51.496;7.334;2023-02-15T16:49:18;13.20;65.70
10812;DHT22;5458;51.496;7.334;2023-02-15T16:51:45;13.30;66.10
10812;DHT22;5458;51.496;7.334;2023-02-15T16:54:21;13.20;66.20
10812;DHT22;5458;51.496;7.334;2023-02-15T16:56:47;13.10;66.40
10812;DHT22;5458;51.496;7.334;2023-02-15T16:59:32;13.10;67.20
10812;DHT22;5458;51.496;7.334;2023-02-15T17:01:58;13.00;67.10
10812;DHT22;5458;51.496;7.334;2023-02-15T17:04:30;13.00;67.50
10812;DHT22;5458;51.496;7.334;2023-02-15T17:07:06;13.00;67.50
10812;DHT22;5458;51.496;7.334;2023-02-15T17:09:49;13.00;67.70
10812;DHT22;5458;51.496;7.334;2023-02-15T17:12:45;12.90;67.70
10812;DHT22;5458;51.496;7.334;2023-02-15T17:18:20;12.90;68.20
10812;DHT22;5458;51.496;7.334;2023-02-15T17:20:50;12.80;68.50
10812;DHT22;5458;51.496;7.334;2023-02-15T17:23:30;12.80;69.20
10812;DHT22;5458;51.496;7.334;2023-02-15T17:25:56;12.70;69.80
10812;DHT22;5458;51.496;7.334;2023-02-15T17:28:25;12.70;70.40
10812;DHT22;5458;51.496;7.334;2023-02-15T17:30:52;12.60;71.10
10812;DHT22;5458;51.496;7.334;2023-02-15T17:33:23;12.60;71.00
10812;DHT22;5458;51.496;7.334;2023-02-15T17:36:16;12.50;71.50
10812;DHT22;5458;51.496;7.334;2023-02-15T17:41:30;12.40;71.80
10812;DHT22;5458;51.496;7.334;2023-02-15T17:43:56;12.40;71.60
10812;DHT22;5458;51.496;7.334;2023-02-15T17:46:23;12.30;71.70
10812;DHT22;5458;51.496;7.334;2023-02-15T17:48:52;12.30;71.50
10812;DHT22;5458;51.496;7.334;2023-02-15T17:51:19;12.30;71.70
10812;DHT22;5458;51.496;7.334;2023-02-15T17:53:46;12.30;72.40
10812;DHT22;5458;51.496;7.334;2023-02-15T17:56:33;12.30;72.40
10812;DHT22;5458;51.496;7.334;2023-02-15T17:58:59;12.30;72.40
10812;DHT22;5458;51.496;7.334;2023-02-15T18:01:25;12.30;72.40
10812;DHT22;5458;51.496;7.334;2023-02-15T18:04:11;12.30;72.40
10812;DHT22;5458;51.496;7.334;2023-02-15T18:06:56;12.30;72.10
10812;DHT22;5458;51.496;7.334;2023-02-15T18:09:41;12.30;72.40
10812;DHT22;5458;51.496;7.334;2023-02-15T18:12:31;12.30;72.40
10812;DHT22;5458;51.496;7.334;2023-02-15T18:14:58;12.20;72.90
10812;DHT22;5458;51.496;7.334;2023-02-15T18:17:39;12.20;73.00
10812;DHT22;5458;51.496;7.334;2023-02-15T18:20:25;12.20;73.50
10812;DHT22;5458;51.496;7.334;2023-02-15T18:22:53;12.10;74.10
10812;DHT22;5458;51.496;7.334;2023-02-15T18:25:21;12.10;74.50
10812;DHT22;5458;51.496;7.334;2023-02-15T18:27:48;12.00;74.70
10812;DHT22;5458;51.496;7.334;2023-02-15T18:30:17;12.00;74.90
10812;DHT22;5458;51.496;7.334;2023-02-15T18:32:44;12.00;75.00
10812;DHT22;5458;51.496;7.334;2023-02-15T18:35:19;11.90;75.30
10812;DHT22;5458;51.496;7.334;2023-02-15T18:37:46;11.90;75.40
10812;DHT22;5458;51.496;7.334;2023-02-15T18:40:20;11.80;75.60
10812;DHT22;5458;51.496;7.334;2023-02-15T18:42:46;11.80;76.10
10812;DHT22;5458;51.496;7.334;2023-02-15T18:45:17;11.70;76.60
10812;DHT22;5458;51.496;7.334;2023-02-15T18:47:47;11.70;77.00
10812;DHT22;5458;51.496;7.334;2023-02-15T18:50:15;11.70;77.20
10812;DHT22;5458;51.496;7.334;2023-02-15T18:52:42;11.60;77.60
10812;DHT22;5458;51.496;7.334;2023-02-15T18:55:25;11.60;77.60
10812;DHT22;5458;51.496;7.334;2023-02-15T18:57:53;11.60;78.10
10812;DHT22;5458;51.496;7.334;2023-02-15T19:00:24;11.50;78.40
10812;DHT22;5458;51.496;7.334;2023-02-15T19:02:50;11.50;78.40
10812;DHT22;5458;51.496;7.334;2023-02-15T19:05:16;11.50;78.80
10812;DHT22;5458;51.496;7.334;2023-02-15T19:07:45;11.50;79.10
10812;DHT22;5458;51.496;7.334;2023-02-15T19:10:24;11.50;79.40
10812;DHT22;5458;51.496;7.334;2023-02-15T19:12:51;11.40;80.20
10812;DHT22;5458;51.496;7.334;2023-02-15T19:15:26;11.40;79.90
10812;DHT22;5458;51.496;7.334;2023-02-15T19:17:53;11.40;80.10
10812;DHT22;5458;51.496;7.334;2023-02-15T19:20:43;11.30;80.20
10812;DHT22;5458;51.496;7.334;2023-02-15T19:23:26;11.30;80.60
10812;DHT22;5458;51.496;7.334;2023-02-15T19:25:52;11.30;80.90
10812;DHT22;5458;51.496;7.334;2023-02-15T19:28:28;11.20;81.50
10812;DHT22;5458;51.496;7.334;2023-02-15T19:30:54;11.20;81.60
10812;DHT22;5458;51.496;7.334;2023-02-15T19:33:20;11.10;81.90
10812;DHT22;5458;51.496;7.334;2023-02-15T19:35:49;11.10;82.40
10812;DHT22;5458;51.496;7.334;2023-02-15T19:38:21;11.10;82.70
10812;DHT22;5458;51.496;7.334;2023-02-15T19:40:48;11.00;82.80
10812;DHT22;5458;51.496;7.334;2023-02-15T19:43:16;11.00;83.20
10812;DHT22;5458;51.496;7.334;2023-02-15T19:45:42;10.90;83.50
10812;DHT22;5458;51.496;7.334;2023-02-15T19:48:11;10.90;83.70
10812;DHT22;5458;51.496;7.334;2023-02-15T19:50:38;10.90;84.10
10812;DHT22;5458;51.496;7.334;2023-02-15T19:53:04;10.90;84.70
10812;DHT22;5458;51.496;7.334;2023-02-15T19:55:33;10.80;85.20
10812;DHT22;5458;51.496;7.334;2023-02-15T19:58:00;10.70;85.50